Time;durP1;ratioP1;P1;durP2;ratioP2;P2;SDS_P1;SDS_P2;PMS_P1;PMS_P2;Temp;Humidity;BMP_temperature;BMP_pressure;BME280_temperature;BME280_humidity;BME280_pressure;Samples;Min_cycle;Max_cycle;Signal;HPM_P1;HPM_P2
2023/09/22 00:00:15;;;;;;;2.80;1.10;;;16.30;99.90;;;;;;4983809;28;20480;-78
2023/09/22 00:02:42;;;;;;;3.10;1.13;;;16.30;99.90;;;;;;4983628;28;20506;-79
2023/09/22 00:05:10;;;;;;;2.27;1.20;;;16.30;99.90;;;;;;4984102;28;20449;-78
2023/09/22 00:07:37;;;;;;;2.73;1.20;;;16.30;99.90;;;;;;4982879;28;20459;-79
2023/09/22 00:10:06;;;;;;;6.13;1.60;;;16.30;99.90;;;;;;4978428;28;20469;-79
2023/09/22 00:12:33;;;;;;;3.90;1.80;;;16.30;99.90;;;;;;4982309;28;20860;-79
2023/09/22 00:15:03;;;;;;;2.37;1.30;;;16.30;99.90;;;;;;4981450;28;20487;-79
2023/09/22 00:17:33;;;;;;;1.90;1.30;;;16.30;99.90;;;;;;4982185;28;20461;-79
2023/09/22 00:20:00;;;;;;;2.27;0.97;;;16.30;99.90;;;;;;4982003;28;20468;-78
2023/09/22 00:22:27;;;;;;;2.40;1.70;;;16.20;99.90;;;;;;4983023;28;20518;-79
2023/09/22 00:24:53;;;;;;;4.23;1.50;;;16.20;99.90;;;;;;4983226;28;20461;-79
2023/09/22 00:27:21;;;;;;;2.70;1.53;;;16.20;99.90;;;;;;4982273;28;20462;-79
2023/09/22 00:29:48;;;;;;;2.20;1.40;;;16.20;99.90;;;;;;4982193;28;20530;-79
2023/09/22 00:32:16;;;;;;;2.73;1.50;;;16.10;99.90;;;;;;4991911;28;20450;-78
2023/09/22 00:34:43;;;;;;;3.30;1.60;;;16.20;99.90;;;;;;4981430;28;20496;-79
2023/09/22 00:37:09;;;;;;;3.17;1.63;;;16.20;99.90;;;;;;4983489;28;20970;-78
2023/09/22 00:39:37;;;;;;;2.20;1.60;;;16.20;99.90;;;;;;4988753;28;20550;-81
2023/09/22 00:42:08;;;;;;;3.50;1.30;;;16.20;99.90;;;;;;4983324;28;20457;-78
2023/09/22 00:44:34;;;;;;;3.10;1.90;;;16.20;99.90;;;;;;4990549;28;20452;-79
2023/09/22 00:47:02;;;;;;;3.80;1.63;;;16.10;99.90;;;;;;4983094;28;20460;-78
2023/09/22 00:49:31;;;;;;;2.03;1.30;;;16.20;99.90;;;;;;4981013;28;21088;-77
2023/09/22 00:51:59;;;;;;;2.10;1.50;;;16.10;99.90;;;;;;4992726;28;20452;-79
2023/09/22 00:54:26;;;;;;;2.43;1.60;;;16.10;99.90;;;;;;4997363;28;20889;-78
2023/09/22 00:56:54;;;;;;;6.90;2.03;;;16.00;99.90;;;;;;4992647;28;20526;-78
2023/09/22 00:59:22;;;;;;;3.50;1.73;;;16.10;99.90;;;;;;4990712;28;20471;-78
2023/09/22 01:01:49;;;;;;;3.33;2.20;;;16.10;99.90;;;;;;4982423;28;20462;-79
2023/09/22 01:04:16;;;;;;;2.53;2.03;;;16.00;99.90;;;;;;4983005;28;20558;-78
2023/09/22 01:06:46;;;;;;;3.93;1.90;;;16.10;99.90;;;;;;4983379;28;20460;-78
2023/09/22 01:09:14;;;;;;;4.70;1.70;;;16.10;99.90;;;;;;4981706;28;20482;-78
2023/09/22 01:11:41;;;;;;;6.43;2.30;;;15.90;99.90;;;;;;4981507;28;20499;-79
2023/09/22 01:14:08;;;;;;;2.30;1.50;;;15.90;99.90;;;;;;4980085;28;20460;-78
2023/09/22 01:16:36;;;;;;;3.17;1.80;;;16.10;99.90;;;;;;4980983;28;20456;-79
2023/09/22 01:19:02;;;;;;;2.73;1.60;;;16.00;99.90;;;;;;4980404;28;20479;-79
2023/09/22 01:21:31;;;;;;;2.47;1.63;;;15.90;99.90;;;;;;4974126;28;20460;-78
2023/09/22 01:23:59;;;;;;;3.23;1.60;;;15.80;99.90;;;;;;4980178;28;20459;-79
2023/09/22 01:26:26;;;;;;;4.50;1.60;;;15.90;99.90;;;;;;4980027;28;20460;-78
2023/09/22 01:28:53;;;;;;;3.30;1.60;;;16.00;99.90;;;;;;4978529;28;20479;-79
2023/09/22 01:31:20;;;;;;;2.20;1.40;;;16.00;99.90;;;;;;4980330;28;20557;-78
2023/09/22 01:33:46;;;;;;;2.40;1.60;;;15.90;99.90;;;;;;4979284;28;20453;-78
2023/09/22 01:36:14;;;;;;;3.10;1.67;;;15.90;99.90;;;;;;4978731;28;20497;-79
2023/09/22 01:38:42;;;;;;;3.40;1.53;;;16.00;99.90;;;;;;4978865;28;20480;-77
2023/09/22 01:41:11;;;;;;;5.30;1.87;;;15.90;99.90;;;;;;4979461;28;20546;-78
2023/09/22 01:43:38;;;;;;;4.03;1.90;;;15.80;99.90;;;;;;4979000;28;20464;-78
2023/09/22 01:46:06;;;;;;;4.50;1.87;;;15.70;99.90;;;;;;4977603;28;20460;-78
2023/09/22 01:48:33;;;;;;;2.63;1.90;;;15.70;99.90;;;;;;4978770;28;20478;-78
2023/09/22 01:51:01;;;;;;;2.73;1.87;;;15.70;99.90;;;;;;4979687;28;20462;-78
2023/09/22 01:53:28;;;;;;;2.30;1.80;;;15.70;99.90;;;;;;4979894;28;20459;-78
2023/09/22 01:55:56;;;;;;;3.20;1.50;;;15.80;99.90;;;;;;4979585;28;20497;-78
2023/09/22 01:58:23;;;;;;;2.83;1.50;;;15.80;99.90;;;;;;4979485;28;20463;-78
2023/09/22 02:00:50;;;;;;;5.90;1.90;;;15.80;99.90;;;;;;4980018;28;20474;-79
2023/09/22 02:03:18;;;;;;;3.43;2.07;;;15.70;99.90;;;;;;4979951;28;20491;-79
2023/09/22 02:05:44;;;;;;;2.53;1.90;;;15.70;99.90;;;;;;4979552;28;20460;-78
2023/09/22 02:08:11;;;;;;;2.47;1.60;;;15.80;99.90;;;;;;4979554;28;20460;-77
2023/09/22 02:10:38;;;;;;;3.67;1.80;;;15.70;99.90;;;;;;4977135;28;20502;-78
2023/09/22 02:13:09;;;;;;;3.57;2.07;;;15.80;99.90;;;;;;4976190;28;20475;-78
2023/09/22 02:15:36;;;;;;;3.70;1.73;;;15.70;99.90;;;;;;4977074;28;20875;-78
2023/09/22 02:18:04;;;;;;;2.33;1.63;;;15.60;99.90;;;;;;4976610;28;20456;-78
2023/09/22 02:20:31;;;;;;;5.10;1.63;;;15.60;99.90;;;;;;4976038;28;20471;-77
2023/09/22 02:22:58;;;;;;;2.30;1.60;;;15.60;99.90;;;;;;4976009;28;20463;-78
2023/09/22 02:25:26;;;;;;;4.93;1.80;;;15.60;99.90;;;;;;4975430;28;20962;-78
2023/09/22 02:27:55;;;;;;;2.33;1.87;;;15.60;99.90;;;;;;4975570;28;20489;-78
2023/09/22 02:30:24;;;;;;;4.07;1.30;;;15.60;99.90;;;;;;4976541;28;20484;-78
2023/09/22 02:32:51;;;;;;;4.90;1.50;;;15.60;99.90;;;;;;4975865;28;20465;-77
2023/09/22 02:35:19;;;;;;;4.30;1.23;;;15.60;99.90;;;;;;4975907;28;20853;-77
2023/09/22 02:37:46;;;;;;;2.70;1.53;;;15.50;99.90;;;;;;4975425;28;20472;-78
2023/09/22 02:40:14;;;;;;;5.17;1.93;;;15.50;99.90;;;;;;4976212;28;20467;-77
2023/09/22 02:42:41;;;;;;;2.93;1.50;;;15.50;99.90;;;;;;4976304;28;20482;-77
2023/09/22 02:45:10;;;;;;;4.13;1.60;;;15.50;99.90;;;;;;4976997;28;20491;-78
2023/09/22 02:47:38;;;;;;;3.63;1.47;;;15.50;99.90;;;;;;4982376;28;20462;-77
2023/09/22 02:50:08;;;;;;;2.33;1.47;;;15.50;99.90;;;;;;4991355;28;20545;-77
2023/09/22 02:52:35;;;;;;;2.80;1.63;;;15.50;99.90;;;;;;4989027;28;20468;-78
2023/09/22 02:55:03;;;;;;;2.10;1.63;;;15.60;99.90;;;;;;4988264;28;20484;-77
2023/09/22 02:57:30;;;;;;;2.33;1.70;;;15.60;99.90;;;;;;4988960;28;20466;-77
2023/09/22 02:59:58;;;;;;;2.77;1.70;;;15.60;99.90;;;;;;4988324;28;20538;-78
2023/09/22 03:02:24;;;;;;;5.43;1.77;;;15.60;99.90;;;;;;4981290;28;20455;-78
2023/09/22 03:04:53;;;;;;;2.63;1.73;;;15.60;99.90;;;;;;4976652;28;20536;-78
2023/09/22 03:07:20;;;;;;;4.13;1.90;;;15.60;99.90;;;;;;4973025;28;20846;-78
2023/09/22 03:09:47;;;;;;;2.77;1.70;;;15.60;99.90;;;;;;4976995;28;20485;-78
2023/09/22 03:12:14;;;;;;;3.47;1.90;;;15.60;99.90;;;;;;4978077;28;20473;-78
2023/09/22 03:14:40;;;;;;;3.60;2.50;;;15.60;99.90;;;;;;4981792;28;20472;-78
2023/09/22 03:17:09;;;;;;;4.10;1.90;;;15.70;99.90;;;;;;4982662;28;20498;-78
2023/09/22 03:19:36;;;;;;;2.33;1.40;;;15.70;99.90;;;;;;4980733;28;20479;-77
2023/09/22 03:22:04;;;;;;;3.20;1.50;;;15.70;99.90;;;;;;4982538;28;20545;-78
2023/09/22 03:24:31;;;;;;;2.20;1.40;;;15.70;99.90;;;;;;4984880;28;20540;-77
2023/09/22 03:26:58;;;;;;;3.30;1.67;;;15.70;99.90;;;;;;4984536;28;20483;-77
2023/09/22 03:29:25;;;;;;;2.37;1.30;;;15.60;99.90;;;;;;4984141;28;20478;-78
2023/09/22 03:31:52;;;;;;;3.73;2.03;;;15.60;99.90;;;;;;4982776;28;20492;-77
2023/09/22 03:34:18;;;;;;;4.00;1.57;;;15.60;99.90;;;;;;4982996;28;20553;-77
2023/09/22 03:36:46;;;;;;;2.97;1.73;;;15.60;99.90;;;;;;4982645;28;20510;-78
2023/09/22 03:39:14;;;;;;;6.10;2.13;;;15.60;99.90;;;;;;4981888;28;20475;-77
2023/09/22 03:41:42;;;;;;;3.70;2.00;;;15.50;99.90;;;;;;4982873;28;20451;-78
2023/09/22 03:44:08;;;;;;;2.67;1.63;;;15.50;99.90;;;;;;4988294;28;20509;-78
2023/09/22 03:46:35;;;;;;;4.93;2.33;;;15.50;99.90;;;;;;4993755;28;20481;-78
2023/09/22 03:49:03;;;;;;;4.67;2.30;;;15.40;99.90;;;;;;4988357;28;20546;-78
2023/09/22 03:51:30;;;;;;;4.43;2.03;;;15.20;99.90;;;;;;4991442;28;20486;-77
2023/09/22 03:53:57;;;;;;;3.57;1.90;;;15.20;99.90;;;;;;4990736;28;20465;-78
2023/09/22 03:56:25;;;;;;;2.60;1.83;;;15.20;99.90;;;;;;4994317;28;20517;-78
2023/09/22 03:58:52;;;;;;;3.10;1.77;;;15.20;99.90;;;;;;4981870;28;20484;-78
2023/09/22 04:01:19;;;;;;;4.13;1.63;;;15.20;99.90;;;;;;4982697;28;20554;-77
2023/09/22 04:03:47;;;;;;;3.40;2.07;;;15.10;99.90;;;;;;4982073;28;20473;-77
2023/09/22 04:06:14;;;;;;;5.77;1.97;;;15.10;99.90;;;;;;4982910;28;20546;-77
2023/09/22 04:08:41;;;;;;;3.00;2.00;;;15.20;99.90;;;;;;4981776;28;20866;-79
2023/09/22 04:11:09;;;;;;;3.13;1.57;;;15.10;99.90;;;;;;4979948;28;20641;-79
2023/09/22 04:13:38;;;;;;;3.37;1.67;;;15.20;99.90;;;;;;4980265;28;20459;-79
2023/09/22 04:16:04;;;;;;;4.30;1.40;;;15.20;99.90;;;;;;4980006;28;20509;-79
2023/09/22 04:18:31;;;;;;;3.90;1.60;;;15.10;99.90;;;;;;4980854;28;20479;-78
2023/09/22 04:21:01;;;;;;;3.40;1.40;;;15.10;99.90;;;;;;4975087;28;20981;-80
2023/09/22 04:23:28;;;;;;;2.83;1.77;;;15.10;99.90;;;;;;4970485;28;20456;-80
2023/09/22 04:25:55;;;;;;;3.20;1.40;;;15.10;99.90;;;;;;4992279;28;20449;-80
2023/09/22 04:28:24;;;;;;;2.20;1.47;;;15.20;99.90;;;;;;4982817;28;20464;-79
2023/09/22 04:30:54;;;;;;;3.80;1.67;;;15.20;99.90;;;;;;4978881;28;20494;-78
2023/09/22 04:33:22;;;;;;;2.10;1.30;;;15.10;99.90;;;;;;4978648;28;20467;-79
2023/09/22 04:35:50;;;;;;;2.73;1.80;;;15.20;99.90;;;;;;4979154;28;20493;-79
2023/09/22 04:38:18;;;;;;;2.10;1.73;;;15.10;99.90;;;;;;4979033;28;20851;-79
2023/09/22 04:40:45;;;;;;;2.90;1.50;;;15.10;99.90;;;;;;4978938;28;20990;-79
2023/09/22 04:43:12;;;;;;;3.40;1.50;;;15.10;99.90;;;;;;4979359;28;20491;-80
2023/09/22 04:45:40;;;;;;;2.93;1.47;;;15.10;99.90;;;;;;4979157;28;20463;-78
2023/09/22 04:48:09;;;;;;;2.23;1.30;;;14.90;99.90;;;;;;4981979;28;20478;-79
2023/09/22 04:50:36;;;;;;;5.00;1.63;;;15.00;99.90;;;;;;4980108;28;20909;-79
2023/09/22 04:53:04;;;;;;;2.23;1.30;;;15.00;99.90;;;;;;4980674;28;20452;-78
2023/09/22 04:55:34;;;;;;;2.93;1.63;;;15.00;99.90;;;;;;4979900;28;20459;-79
2023/09/22 04:58:02;;;;;;;2.33;1.27;;;15.00;99.90;;;;;;4980852;28;20512;-78
2023/09/22 05:00:28;;;;;;;6.90;1.60;;;15.00;99.90;;;;;;4979550;28;20554;-79
2023/09/22 05:02:56;;;;;;;5.20;1.60;;;15.00;99.90;;;;;;4979627;28;20467;-78
2023/09/22 05:05:24;;;;;;;3.60;1.40;;;14.90;99.90;;;;;;4979305;28;20541;-78
2023/09/22 05:07:51;;;;;;;4.27;1.27;;;15.00;99.90;;;;;;4979607;28;20463;-78
2023/09/22 05:10:18;;;;;;;3.30;1.47;;;15.10;99.90;;;;;;4976155;28;20501;-79
2023/09/22 05:12:45;;;;;;;2.73;1.33;;;15.00;99.90;;;;;;4978615;28;20975;-79
2023/09/22 05:15:12;;;;;;;3.13;1.23;;;15.00;99.90;;;;;;4980027;28;20464;-80
2023/09/22 05:17:39;;;;;;;3.27;1.30;;;14.90;99.90;;;;;;4978216;28;20527;-79
2023/09/22 05:20:11;;;;;;;2.93;1.30;;;15.00;99.90;;;;;;4975031;28;20496;-80
2023/09/22 05:22:40;;;;;;;2.07;1.30;;;15.00;99.90;;;;;;4979447;28;20491;-78
2023/09/22 05:25:07;;;;;;;2.47;1.40;;;14.90;99.90;;;;;;4972411;28;20458;-78
2023/09/22 05:27:35;;;;;;;3.60;1.47;;;14.90;99.90;;;;;;4979584;28;20462;-78
2023/09/22 05:30:02;;;;;;;4.13;1.60;;;14.80;99.90;;;;;;4979817;28;20477;-78
2023/09/22 05:32:29;;;;;;;4.30;1.63;;;14.80;99.90;;;;;;4978373;28;20474;-78
2023/09/22 05:34:57;;;;;;;2.93;1.30;;;14.80;99.90;;;;;;4979783;28;20467;-78
2023/09/22 05:37:24;;;;;;;7.10;1.93;;;14.80;99.90;;;;;;4980151;28;20589;-80
2023/09/22 05:39:53;;;;;;;3.13;1.37;;;14.70;99.90;;;;;;4980532;28;20555;-78
2023/09/22 05:42:20;;;;;;;2.13;1.33;;;14.70;99.90;;;;;;4980674;28;20461;-78
2023/09/22 05:44:47;;;;;;;3.60;1.90;;;14.80;99.90;;;;;;4981404;28;20455;-78
2023/09/22 05:47:14;;;;;;;2.20;1.23;;;14.80;99.90;;;;;;4974286;28;20865;-79
2023/09/22 05:49:42;;;;;;;3.70;1.93;;;14.80;99.90;;;;;;4981013;28;20570;-79
2023/09/22 05:52:09;;;;;;;3.90;1.50;;;14.90;99.90;;;;;;4981930;28;20478;-78
2023/09/22 05:54:35;;;;;;;2.80;1.60;;;14.90;99.90;;;;;;4980584;28;20486;-79
2023/09/22 05:57:04;;;;;;;2.87;1.47;;;14.90;99.90;;;;;;4978284;28;20500;-80
2023/09/22 05:59:31;;;;;;;2.40;1.40;;;14.90;99.90;;;;;;4982004;28;20574;-79
2023/09/22 06:02:00;;;;;;;7.63;1.93;;;14.90;99.90;;;;;;4982292;28;20546;-79
2023/09/22 06:04:29;;;;;;;3.37;1.87;;;14.90;99.90;;;;;;4983148;28;20470;-78
2023/09/22 06:06:56;;;;;;;3.90;1.40;;;14.90;99.90;;;;;;4981009;28;20490;-79
2023/09/22 06:09:23;;;;;;;5.13;1.63;;;14.90;99.90;;;;;;4979819;28;20502;-78
2023/09/22 06:11:50;;;;;;;2.47;1.30;;;14.90;99.90;;;;;;4981230;28;20466;-79
2023/09/22 06:14:18;;;;;;;5.30;1.30;;;14.90;99.90;;;;;;4980629;28;20466;-80
2023/09/22 06:16:45;;;;;;;4.47;1.93;;;14.80;99.90;;;;;;4981122;28;20576;-79
2023/09/22 06:19:12;;;;;;;3.27;1.20;;;14.70;99.90;;;;;;4982846;28;20487;-79
2023/09/22 06:21:39;;;;;;;2.80;1.30;;;14.80;99.90;;;;;;4981833;28;20534;-79
2023/09/22 06:24:07;;;;;;;2.63;1.70;;;14.80;99.90;;;;;;4983029;28;20471;-79
2023/09/22 06:26:34;;;;;;;3.00;1.27;;;14.80;99.90;;;;;;4982640;28;20453;-79
2023/09/22 06:29:00;;;;;;;2.60;1.70;;;14.80;99.90;;;;;;4981866;28;20564;-78
2023/09/22 06:31:29;;;;;;;4.33;1.50;;;14.90;99.90;;;;;;4982480;28;20470;-78
2023/09/22 06:33:55;;;;;;;4.57;1.50;;;14.90;99.90;;;;;;4982070;28;20457;-79
2023/09/22 06:36:23;;;;;;;2.83;1.10;;;14.90;99.90;;;;;;4977802;28;20495;-78
2023/09/22 06:38:51;;;;;;;2.80;1.07;;;14.90;99.90;;;;;;4974915;28;20472;-78
2023/09/22 06:41:18;;;;;;;3.07;1.23;;;14.90;99.90;;;;;;4973917;28;20463;-79
2023/09/22 06:43:46;;;;;;;2.77;1.60;;;14.90;99.90;;;;;;4976427;28;20487;-78
2023/09/22 06:46:14;;;;;;;1.90;1.17;;;14.90;99.90;;;;;;4974762;28;20532;-78
2023/09/22 06:48:42;;;;;;;6.13;1.60;;;14.90;99.90;;;;;;4977763;28;20558;-78
2023/09/22 06:51:16;;;;;;;2.10;1.20;;;15.00;99.90;;;;;;4985552;28;20465;-79
2023/09/22 06:53:43;;;;;;;3.70;1.40;;;15.00;99.90;;;;;;4984115;28;21047;-79
2023/09/22 06:56:10;;;;;;;2.83;1.13;;;14.90;99.90;;;;;;4975872;28;20467;-79
2023/09/22 06:58:38;;;;;;;2.83;1.50;;;15.00;99.90;;;;;;4986461;28;20487;-80
2023/09/22 07:01:10;;;;;;;3.00;1.40;;;15.00;99.90;;;;;;4978140;28;20505;-79
2023/09/22 07:03:37;;;;;;;2.10;1.50;;;15.10;99.90;;;;;;4981880;28;20471;-79
2023/09/22 07:06:07;;;;;;;5.00;1.50;;;15.10;99.90;;;;;;4978710;28;20553;-79
2023/09/22 07:08:34;;;;;;;3.03;1.63;;;15.10;99.90;;;;;;4971617;28;20477;-79
2023/09/22 07:11:02;;;;;;;3.70;1.30;;;15.20;99.90;;;;;;4973171;28;20481;-80
2023/09/22 07:13:29;;;;;;;2.60;1.23;;;15.20;99.90;;;;;;4984529;28;20458;-79
2023/09/22 07:15:57;;;;;;;3.10;1.57;;;15.30;99.90;;;;;;4984586;28;20846;-78
2023/09/22 07:18:25;;;;;;;3.47;1.40;;;15.30;99.90;;;;;;4994195;28;20497;-79
2023/09/22 07:20:52;;;;;;;2.20;1.40;;;15.40;99.90;;;;;;4980711;28;20840;-79
2023/09/22 07:23:20;;;;;;;2.87;1.23;;;15.40;99.90;;;;;;4977928;28;20451;-78
2023/09/22 07:25:58;;;;;;;2.70;1.70;;;15.40;99.90;;;;;;4970130;28;20462;-77
2023/09/22 07:28:25;;;;;;;2.57;1.27;;;15.50;99.90;;;;;;4973229;28;21027;-79
2023/09/22 07:30:52;;;;;;;2.40;1.30;;;15.50;99.90;;;;;;4974098;28;20463;-79
2023/09/22 07:33:19;;;;;;;3.90;1.23;;;15.60;99.90;;;;;;4972900;28;20464;-79
2023/09/22 07:35:48;;;;;;;2.00;1.23;;;15.60;99.90;;;;;;4976304;28;20455;-79
2023/09/22 07:38:16;;;;;;;5.47;1.90;;;15.70;99.90;;;;;;4972641;28;20495;-78
2023/09/22 07:40:45;;;;;;;3.30;1.20;;;15.70;99.90;;;;;;4975650;28;20542;-78
2023/09/22 07:43:12;;;;;;;2.70;1.30;;;15.60;99.90;;;;;;4976862;28;20462;-80
2023/09/22 07:45:39;;;;;;;2.60;1.43;;;15.60;99.90;;;;;;4977763;28;20820;-79
2023/09/22 07:48:06;;;;;;;2.67;1.13;;;15.60;99.90;;;;;;4977456;28;20470;-80
2023/09/22 07:50:35;;;;;;;3.77;1.13;;;15.70;99.90;;;;;;4974985;28;20470;-79
2023/09/22 07:53:02;;;;;;;4.77;1.57;;;15.70;99.90;;;;;;4975291;28;20453;-79
2023/09/22 07:55:29;;;;;;;2.93;1.30;;;15.70;99.90;;;;;;4977977;28;20510;-78
2023/09/22 07:57:57;;;;;;;3.23;1.40;;;15.80;99.90;;;;;;4972913;28;21068;-79
2023/09/22 08:00:26;;;;;;;3.50;1.03;;;15.90;99.90;;;;;;4979050;28;20553;-79
2023/09/22 08:02:53;;;;;;;2.77;1.10;;;15.90;99.90;;;;;;4994517;28;20459;-78
2023/09/22 08:05:20;;;;;;;3.57;1.20;;;15.90;99.90;;;;;;4973284;28;20452;-79
2023/09/22 08:07:49;;;;;;;2.27;1.13;;;16.00;99.90;;;;;;4969999;28;20543;-80
2023/09/22 08:10:16;;;;;;;3.93;1.50;;;16.00;99.90;;;;;;4975783;28;20564;-80
2023/09/22 08:12:44;;;;;;;3.70;1.20;;;16.00;99.90;;;;;;4971291;28;20453;-78
2023/09/22 08:15:14;;;;;;;2.27;1.17;;;16.00;99.90;;;;;;4976317;28;20456;-80
2023/09/22 08:17:41;;;;;;;2.07;1.00;;;16.10;99.90;;;;;;4978373;28;20590;-83
2023/09/22 08:20:11;;;;;;;2.00;0.90;;;16.10;99.90;;;;;;4972084;28;20875;-79
2023/09/22 08:22:38;;;;;;;2.70;0.90;;;16.10;99.90;;;;;;4965521;28;20475;-80
2023/09/22 08:25:08;;;;;;;5.10;1.20;;;16.10;99.90;;;;;;4971221;28;20519;-80
2023/09/22 08:27:35;;;;;;;2.37;0.90;;;16.10;99.90;;;;;;4976201;28;20578;-78
2023/09/22 08:30:09;;;;;;;1.77;1.00;;;16.10;99.90;;;;;;4981436;28;20488;-77
2023/09/22 08:32:39;;;;;;;2.70;0.90;;;16.20;99.90;;;;;;4984240;28;20492;-78
2023/09/22 08:35:07;;;;;;;2.80;1.20;;;16.30;99.90;;;;;;4981390;28;20556;-79
2023/09/22 08:37:36;;;;;;;1.90;0.93;;;16.40;99.90;;;;;;4980009;28;20494;-79
2023/09/22 08:40:08;;;;;;;2.60;1.10;;;16.40;99.90;;;;;;4980290;28;20509;-78
2023/09/22 08:42:35;;;;;;;2.60;1.00;;;16.40;99.90;;;;;;4990544;28;20869;-78
2023/09/22 08:45:03;;;;;;;2.50;1.30;;;16.30;99.90;;;;;;4999699;28;20450;-79
2023/09/22 08:47:30;;;;;;;6.30;1.20;;;16.40;99.90;;;;;;4981350;28;20833;-77
2023/09/22 08:49:58;;;;;;;2.00;1.10;;;16.60;99.90;;;;;;4981006;28;20484;-79
2023/09/22 08:52:25;;;;;;;2.23;1.03;;;16.60;99.90;;;;;;4978675;28;20458;-78
2023/09/22 08:54:52;;;;;;;2.30;1.10;;;16.60;99.90;;;;;;4968244;28;20469;-77
2023/09/22 08:57:19;;;;;;;2.27;1.33;;;16.70;99.90;;;;;;4976515;28;20575;-78
2023/09/22 08:59:46;;;;;;;2.67;1.23;;;16.90;99.90;;;;;;4981665;28;20491;-78
2023/09/22 09:02:14;;;;;;;5.67;1.50;;;17.00;99.90;;;;;;4985539;28;20467;-79
2023/09/22 09:04:41;;;;;;;2.63;1.00;;;16.90;99.90;;;;;;4981236;28;20464;-79
2023/09/22 09:07:09;;;;;;;1.63;1.00;;;17.00;99.90;;;;;;4981250;28;20848;-78
2023/09/22 09:09:44;;;;;;;2.10;1.20;;;16.80;99.90;;;;;;4980684;28;20483;-79
2023/09/22 09:12:11;;;;;;;3.00;1.40;;;16.80;99.90;;;;;;4979929;28;20471;-82
2023/09/22 09:14:40;;;;;;;2.07;1.13;;;16.80;99.90;;;;;;4979432;28;20473;-81
2023/09/22 09:17:19;;;;;;;3.07;1.80;;;16.90;99.90;;;;;;4975258;28;20497;-81
2023/09/22 09:19:48;;;;;;;3.93;1.23;;;16.80;99.90;;;;;;4975909;28;20489;-83
2023/09/22 09:22:16;;;;;;;5.77;1.20;;;16.90;99.90;;;;;;4979441;28;20454;-79
2023/09/22 09:24:45;;;;;;;4.73;1.30;;;16.90;99.90;;;;;;4981013;28;20536;-79
2023/09/22 09:27:18;;;;;;;2.90;1.80;;;16.90;99.90;;;;;;4979715;28;20463;-80
2023/09/22 09:29:47;;;;;;;3.00;1.10;;;17.00;99.90;;;;;;4978191;28;20480;-81
2023/09/22 09:32:23;;;;;;;5.43;1.00;;;17.20;99.90;;;;;;4980030;28;20560;-81
2023/09/22 09:34:51;;;;;;;3.03;1.27;;;17.30;99.90;;;;;;4973141;28;20470;-79
2023/09/22 09:37:20;;;;;;;1.90;1.00;;;17.40;99.90;;;;;;4977713;28;20482;-81
2023/09/22 09:39:50;;;;;;;3.03;1.07;;;17.30;99.90;;;;;;4973453;28;20950;-80
2023/09/22 09:42:18;;;;;;;2.80;1.40;;;17.30;99.90;;;;;;4980644;28;20838;-80
2023/09/22 09:44:49;;;;;;;4.40;1.70;;;17.30;99.90;;;;;;4972277;28;20457;-80
2023/09/22 09:47:24;;;;;;;1.70;0.90;;;17.00;99.90;;;;;;4977742;28;20870;-79
2023/09/22 09:50:04;;;;;;;2.87;1.10;;;17.10;99.90;;;;;;4976608;28;20479;-80
2023/09/22 09:52:37;;;;;;;2.00;1.23;;;17.00;99.90;;;;;;4978655;28;20464;-80
2023/09/22 09:55:13;;;;;;;3.30;1.43;;;17.00;99.90;;;;;;4978851;28;20461;-80
2023/09/22 09:57:40;;;;;;;2.50;1.20;;;16.90;99.90;;;;;;4978460;28;20497;-80
2023/09/22 10:00:12;;;;;;;2.40;1.13;;;16.90;99.90;;;;;;4978167;28;20478;-80
2023/09/22 10:02:41;;;;;;;2.30;1.20;;;17.00;99.90;;;;;;4978999;28;20461;-80
2023/09/22 10:05:09;;;;;;;3.93;1.10;;;16.90;99.90;;;;;;4978488;28;20938;-79
2023/09/22 10:07:38;;;;;;;3.63;1.27;;;16.90;99.90;;;;;;4977452;28;20459;-80
2023/09/22 10:10:07;;;;;;;2.23;1.00;;;16.90;99.90;;;;;;4979100;28;20481;-80
2023/09/22 10:12:34;;;;;;;2.50;1.10;;;17.00;99.90;;;;;;4978125;28;20460;-79
2023/09/22 10:15:04;;;;;;;3.43;1.40;;;17.10;99.90;;;;;;4978328;28;20473;-79
2023/09/22 10:17:32;;;;;;;2.00;1.10;;;17.00;99.90;;;;;;4976193;28;20879;-80
2023/09/22 10:20:02;;;;;;;1.83;1.10;;;17.10;99.90;;;;;;4972212;28;21022;-79
2023/09/22 10:22:29;;;;;;;3.80;1.10;;;17.20;99.90;;;;;;4977539;28;20490;-79
2023/09/22 10:25:23;;;;;;;2.73;1.10;;;17.20;99.90;;;;;;4977821;28;20457;-79
2023/09/22 10:27:54;;;;;;;2.93;1.20;;;17.40;99.90;;;;;;4977311;28;20465;-79
2023/09/22 10:30:21;;;;;;;3.30;1.10;;;17.70;99.90;;;;;;4977959;28;20478;-78
2023/09/22 10:32:48;;;;;;;4.53;1.17;;;17.90;99.90;;;;;;4978052;28;20455;-79
2023/09/22 10:35:41;;;;;;;2.87;1.20;;;18.10;99.90;;;;;;4978252;28;20455;-79
2023/09/22 10:38:10;;;;;;;2.50;0.80;;;17.90;99.90;;;;;;4977571;28;20517;-79
2023/09/22 10:40:40;;;;;;;1.70;0.80;;;18.10;99.90;;;;;;4977831;28;20465;-80
2023/09/22 10:43:07;;;;;;;1.80;1.00;;;18.10;99.90;;;;;;4977856;28;20463;-79
2023/09/22 10:45:34;;;;;;;2.43;0.80;;;18.10;99.90;;;;;;4977784;28;20463;-79
2023/09/22 10:48:01;;;;;;;3.30;1.00;;;18.10;99.90;;;;;;4977823;28;20469;-80
2023/09/22 10:50:31;;;;;;;1.90;0.87;;;18.00;99.90;;;;;;4977244;28;20484;-80
2023/09/22 10:53:00;;;;;;;2.90;1.50;;;18.00;99.90;;;;;;4973736;28;20465;-79
2023/09/22 10:55:34;;;;;;;2.20;0.90;;;18.10;99.90;;;;;;4971434;28;20466;-79
2023/09/22 10:58:04;;;;;;;2.67;1.10;;;18.20;99.90;;;;;;4967231;28;20494;-80
2023/09/22 11:00:35;;;;;;;3.10;1.10;;;18.30;99.90;;;;;;4977276;28;20542;-79
2023/09/22 11:03:07;;;;;;;3.03;0.80;;;18.30;99.90;;;;;;4977099;28;20945;-80
2023/09/22 11:05:34;;;;;;;1.83;1.10;;;18.80;99.90;;;;;;4977688;28;20474;-80
2023/09/22 11:08:02;;;;;;;2.50;1.00;;;19.70;99.90;;;;;;4977381;28;20455;-79
2023/09/22 11:10:31;;;;;;;2.40;1.23;;;20.60;99.90;;;;;;4978007;28;20492;-79
2023/09/22 11:12:59;;;;;;;2.03;0.87;;;20.70;99.90;;;;;;4977963;28;20464;-79
2023/09/22 11:15:27;;;;;;;2.80;1.20;;;20.50;99.90;;;;;;4977608;28;20912;-79
2023/09/22 11:17:54;;;;;;;4.50;1.10;;;20.40;99.90;;;;;;4977104;28;20494;-79
2023/09/22 11:20:26;;;;;;;2.87;0.97;;;20.20;99.90;;;;;;4978100;28;20949;-79
2023/09/22 11:22:53;;;;;;;2.53;1.10;;;20.00;99.90;;;;;;4977827;28;20545;-79
2023/09/22 11:25:21;;;;;;;2.10;0.90;;;19.90;99.90;;;;;;4977876;28;20479;-79
2023/09/22 11:27:49;;;;;;;2.00;0.70;;;20.40;99.90;;;;;;4977150;28;20455;-79
2023/09/22 11:30:18;;;;;;;4.57;1.20;;;21.00;99.90;;;;;;4977270;28;20539;-79
2023/09/22 11:32:47;;;;;;;4.03;1.00;;;21.30;99.90;;;;;;4977788;28;20451;-79
2023/09/22 11:35:37;;;;;;;2.30;0.90;;;21.10;99.90;;;;;;4980133;28;20451;-79
2023/09/22 11:38:24;;;;;;;4.83;1.30;;;21.70;1.00;;;;;;4980663;28;20487;-80
2023/09/22 11:40:51;;;;;;;2.63;1.10;;;22.30;1.00;;;;;;4981344;28;20460;-79
2023/09/22 11:43:18;;;;;;;1.97;0.90;;;22.80;99.90;;;;;;4981398;28;20465;-80
2023/09/22 11:45:45;;;;;;;2.00;1.03;;;22.70;1.00;;;;;;4981557;28;20451;-79
2023/09/22 11:48:13;;;;;;;2.33;0.90;;;22.20;1.00;;;;;;4981200;28;20534;-79
2023/09/22 11:50:40;;;;;;;2.60;1.13;;;21.90;1.00;;;;;;4980193;28;20452;-79
2023/09/22 11:53:16;;;;;;;3.47;1.00;;;21.70;1.00;;;;;;4976382;28;20463;-80
2023/09/22 11:55:45;;;;;;;2.63;1.50;;;21.80;99.90;;;;;;4972700;28;20533;-79
2023/09/22 11:58:12;;;;;;;3.40;1.10;;;22.50;99.90;;;;;;4980282;28;20495;-79
2023/09/22 12:00:39;;;;;;;2.20;1.00;;;22.90;1.00;;;;;;4977026;28;20556;-82
2023/09/22 12:03:05;;;;;;;6.00;1.60;;;22.70;99.90;;;;;;4980098;28;20463;-79
2023/09/22 12:05:36;;;;;;;2.37;1.07;;;22.60;99.90;;;;;;4977161;28;20934;-79
2023/09/22 12:08:04;;;;;;;3.00;1.30;;;22.50;1.00;;;;;;4980669;28;20479;-80
2023/09/22 12:10:30;;;;;;;2.17;1.00;;;22.40;1.00;;;;;;4979787;28;20566;-80
2023/09/22 12:12:57;;;;;;;2.20;1.00;;;22.70;99.90;;;;;;4981138;28;20834;-80
2023/09/22 12:15:24;;;;;;;3.53;1.20;;;23.00;1.00;;;;;;4976277;28;20486;-80
2023/09/22 12:17:51;;;;;;;4.30;1.27;;;23.40;1.00;;;;;;4980089;28;20473;-79
2023/09/22 12:20:18;;;;;;;2.23;1.10;;;23.70;1.00;;;;;;4975744;28;20561;-78
2023/09/22 12:22:46;;;;;;;3.37;1.00;;;24.40;99.90;;;;;;4977745;28;20569;-79
2023/09/22 12:25:14;;;;;;;3.27;0.93;;;24.60;1.00;;;;;;4976786;28;20473;-81
2023/09/22 12:27:41;;;;;;;2.47;1.10;;;24.70;1.00;;;;;;4981188;28;20459;-79
2023/09/22 12:30:09;;;;;;;2.70;1.17;;;24.90;1.00;;;;;;4977487;28;21022;-79
2023/09/22 12:32:36;;;;;;;2.70;1.00;;;25.20;1.00;;;;;;4980715;28;20451;-79
2023/09/22 12:35:05;;;;;;;2.97;1.20;;;25.20;1.00;;;;;;4977392;28;20459;-80
2023/09/22 12:37:33;;;;;;;1.90;0.87;;;25.10;1.00;;;;;;4980680;28;20451;-80
2023/09/22 12:40:03;;;;;;;2.73;0.90;;;25.10;1.00;;;;;;4975166;28;20488;-81
2023/09/22 12:42:31;;;;;;;3.13;1.07;;;25.50;90.30;;;;;;4980538;28;20483;-79
2023/09/22 12:44:58;;;;;;;2.13;0.90;;;25.60;1.00;;;;;;4982037;28;20828;-81
2023/09/22 12:47:25;;;;;;;3.17;0.90;;;25.40;99.90;;;;;;4982628;28;20530;-82
2023/09/22 12:49:52;;;;;;;2.73;1.00;;;25.60;1.00;;;;;;4977266;28;20555;-80
2023/09/22 12:52:19;;;;;;;3.73;1.10;;;25.80;1.00;;;;;;4980682;28;20466;-81